Página principal
METAR-TAF:

METAR-TAF

Aeroportos :

Trípoli, Líbia

Aeroporto Internacional de Mitiga

latitude: 32-54N, longitude: 13-17E, altura: 11 m

Observação actual do tempo

O boletim foi feito há 59 minutos, às 22:55 UTC
Vento 2 kt de sul
Temperatura 27°C
Humidade 74%
Pressão 1016 hPa
Visibilidade: 7000 m
Céu limpo

METAR: HLLM 182255Z 18002KT 7000 SKC 27/22 Q1016

Hora: 01:54 (23:54 UTC)

Previsão

O boletim foi feito há 6 horas e 54 minutos, às 17:00 UTC
Previsão válida de 18 às 18 UTC a 19 às 18 UTC
Vento 10 kt de norte
Visibilidade 10 km ou mais
sem nuvens abaixo de 1500 metros e sem cumulonimbus
Tornando-se
de 19 às 00 UTC a 19 às 02 UTC
Vento 2 kt com direcção variável
Visibilidade: 8000 m
Tornando-se
de 19 às 10 UTC a 19 às 12 UTC
Vento 12 kt de es-nordeste

TAF: HLLM 181700Z 1818/1918 36010KT CAVOK BECMG 1900/1902 VRB02KT 8000 NSC BECMG 1910/1912 06012KT

Observações e previsões do tempo de mais de 4000 aeroportos (mensagens METAR e TAF).

As estações disponíveis são os pontos amarelos e vermelhos sobre o mapa.

Mova o rato sobre o mapa para ver o nome da estação.

Depois clique no ponto para visualizar as observações e previsões meteorológicas.

Para alterar o mapa : clique nos botões verdes com uma cruz preta para aumentar o zoom; no botão verde com uma pitada de zoom; ou nas setas verdes para mapas adjacentes.


METAR-TAF: